createdAt,value
2023-05-15T00:00:16.793Z,98231.34
2023-05-15T00:03:31.612Z,98225.66
2023-05-15T00:06:43.862Z,98224.81
2023-05-15T00:09:55.906Z,98223.35
2023-05-15T00:13:07.894Z,98220.00
2023-05-15T00:16:20.396Z,98220.69
2023-05-15T00:19:32.770Z,98216.34
2023-05-15T00:22:45.028Z,98207.36
2023-05-15T00:25:57.284Z,98204.83
2023-05-15T00:29:09.440Z,98204.70
2023-05-15T00:32:21.734Z,98196.85
2023-05-15T00:35:36.619Z,98185.39
2023-05-15T00:38:49.558Z,98181.38
2023-05-15T00:42:03.196Z,98180.05
2023-05-15T00:45:19.438Z,98176.06
2023-05-15T00:48:31.700Z,98174.09
2023-05-15T00:51:44.173Z,98168.76
2023-05-15T00:54:56.389Z,98157.08
2023-05-15T00:58:08.970Z,98153.77
2023-05-15T01:01:22.178Z,98151.78
2023-05-15T01:04:34.437Z,98140.44
2023-05-15T01:07:52.739Z,98149.45
2023-05-15T01:11:06.450Z,98140.27
2023-05-15T01:14:18.613Z,98136.25
2023-05-15T01:17:31.008Z,98139.76
2023-05-15T01:20:52.447Z,98150.79
2023-05-15T01:24:19.617Z,98156.78
2023-05-15T01:27:36.434Z,98143.77
2023-05-15T01:30:51.372Z,98136.61
2023-05-15T01:34:08.533Z,98131.94
2023-05-15T01:37:26.131Z,98133.77
2023-05-15T01:40:38.470Z,98131.26
2023-05-15T01:43:56.364Z,98138.44
2023-05-15T01:47:13.460Z,98120.63
2023-05-15T01:50:26.089Z,98111.11
2023-05-15T01:53:39.160Z,98110.63
2023-05-15T01:56:52.197Z,98110.63
2023-05-15T02:00:05.952Z,98108.48
2023-05-15T02:03:21.571Z,98096.86
2023-05-15T02:06:34.598Z,98094.02
2023-05-15T02:09:47.797Z,98101.66
2023-05-15T02:13:01.934Z,98094.31
2023-05-15T02:16:14.818Z,98079.20
2023-05-15T02:19:27.554Z,98082.05
2023-05-15T02:22:39.598Z,98074.03
2023-05-15T02:25:58.305Z,98073.55
2023-05-15T02:29:21.402Z,98060.59
2023-05-15T02:32:41.668Z,98059.78
2023-05-15T02:35:59.988Z,98049.94
2023-05-15T02:39:13.376Z,98045.63
2023-05-15T02:42:27.224Z,98040.63
2023-05-15T02:45:40.728Z,98043.92
2023-05-15T02:48:54.418Z,98043.14
2023-05-15T02:52:07.183Z,98034.31
2023-05-15T02:55:19.566Z,98036.47
2023-05-15T02:58:31.836Z,98037.45
2023-05-15T03:01:44.492Z,98039.16
2023-05-15T03:04:56.627Z,98047.81
2023-05-15T03:08:09.435Z,98031.47
2023-05-15T03:11:22.372Z,98037.28
2023-05-15T03:14:34.352Z,98029.95
2023-05-15T03:17:46.541Z,98028.59
2023-05-15T03:20:59.848Z,98028.30
2023-05-15T03:24:13.177Z,98034.94
2023-05-15T03:27:25.374Z,98029.62
2023-05-15T03:30:37.639Z,98037.90
2023-05-15T03:33:50.321Z,98032.28
2023-05-15T03:37:02.421Z,98034.58
2023-05-15T03:40:18.407Z,98012.66
2023-05-15T03:43:30.913Z,98027.25
2023-05-15T03:46:43.261Z,98029.25
2023-05-15T03:49:56.563Z,98025.24
2023-05-15T03:53:08.877Z,98014.41
2023-05-15T03:56:21.497Z,98002.06
2023-05-15T03:59:33.912Z,97997.86
2023-05-15T04:02:46.804Z,97999.69
2023-05-15T04:05:59.132Z,97999.03
2023-05-15T04:09:12.361Z,97993.60
2023-05-15T04:12:26.916Z,97991.41
2023-05-15T04:15:39.751Z,97993.56
2023-05-15T04:18:51.888Z,97983.94
2023-05-15T04:22:04.035Z,97987.20
2023-05-15T04:25:18.898Z,97981.83
2023-05-15T04:28:31.944Z,97964.67
2023-05-15T04:31:43.991Z,97969.53
2023-05-15T04:34:56.403Z,97960.52
2023-05-15T04:38:08.974Z,97947.14
2023-05-15T04:41:21.074Z,97941.52
2023-05-15T04:44:33.940Z,97941.44
2023-05-15T04:47:46.370Z,97936.23
2023-05-15T04:50:58.729Z,97937.06
2023-05-15T04:54:11.435Z,97952.41
2023-05-15T04:57:23.558Z,97956.03
2023-05-15T05:00:36.520Z,97946.67
2023-05-15T05:03:48.658Z,97943.48
2023-05-15T05:07:00.887Z,97941.93
2023-05-15T05:10:16.052Z,97923.92
2023-05-15T05:13:28.071Z,97948.61
2023-05-15T05:16:42.506Z,97944.05
2023-05-15T05:19:54.438Z,97919.16
2023-05-15T05:23:06.639Z,97929.68
2023-05-15T05:26:18.955Z,97932.34
2023-05-15T05:29:31.306Z,97938.44
2023-05-15T05:32:43.424Z,97942.67
2023-05-15T05:35:56.192Z,97953.50
2023-05-15T05:39:08.882Z,97953.03
2023-05-15T05:42:21.231Z,97952.58
2023-05-15T05:45:34.222Z,97949.45
2023-05-15T05:48:46.441Z,97946.29
2023-05-15T05:51:58.948Z,97961.48
2023-05-15T05:55:12.799Z,97945.83
2023-05-15T05:58:25.883Z,97934.33
2023-05-15T06:01:39.049Z,97931.38
2023-05-15T06:04:54.028Z,97923.20
2023-05-15T06:11:06.612Z,97907.20
2023-05-15T06:14:19.522Z,97897.18
2023-05-15T06:17:32.328Z,97883.39
2023-05-15T06:20:44.622Z,97883.12
2023-05-15T06:23:56.903Z,97879.54
2023-05-15T06:27:09.999Z,97888.75
2023-05-15T06:30:23.327Z,97880.83
2023-05-15T06:33:35.539Z,97866.95
2023-05-15T06:36:48.152Z,97881.30
2023-05-15T06:40:00.714Z,97890.49
2023-05-15T06:43:12.930Z,97866.77
2023-05-15T06:46:25.500Z,97861.60
2023-05-15T06:49:37.691Z,97867.33
2023-05-15T06:52:49.968Z,97864.56
2023-05-15T06:56:02.361Z,97864.91
2023-05-15T06:59:14.528Z,97860.61
2023-05-15T07:02:27.042Z,97853.14
2023-05-15T07:05:39.299Z,97860.21
2023-05-15T07:08:51.435Z,97867.63
2023-05-15T07:12:04.052Z,97867.63
2023-05-15T07:15:18.104Z,97861.97
2023-05-15T07:18:30.738Z,97869.84
2023-05-15T07:21:43.524Z,97866.67
2023-05-15T07:24:55.808Z,97867.06
2023-05-15T07:28:08.422Z,97877.28
2023-05-15T07:31:20.546Z,97872.73
2023-05-15T07:34:32.936Z,97876.17
2023-05-15T07:37:46.758Z,97873.50
2023-05-15T07:40:59.232Z,97879.80
2023-05-15T07:44:11.652Z,97875.92
2023-05-15T07:47:23.798Z,97885.78
2023-05-15T07:50:36.345Z,97881.78
2023-05-15T07:53:48.526Z,97873.13
2023-05-15T07:57:00.752Z,97872.86
2023-05-15T08:00:16.358Z,97875.59
2023-05-15T08:03:28.736Z,97877.00
2023-05-15T08:06:44.687Z,97882.08
2023-05-15T08:09:56.952Z,97889.40
2023-05-15T08:13:09.152Z,97887.80
2023-05-15T08:16:21.495Z,97899.33
2023-05-15T08:19:33.689Z,97893.14
2023-05-15T08:22:46.067Z,97884.44
2023-05-15T08:25:58.277Z,97886.73
2023-05-15T08:29:11.918Z,97884.80
2023-05-15T08:32:24.368Z,97886.64
2023-05-15T08:35:36.983Z,97889.00
2023-05-15T08:38:52.317Z,97891.27
2023-05-15T08:42:12.986Z,97894.21
2023-05-15T08:45:25.701Z,97891.00
2023-05-15T08:48:41.808Z,97888.78
2023-05-15T08:51:54.689Z,97896.03
2023-05-15T08:55:08.526Z,97896.87
2023-05-15T08:58:23.694Z,97895.86
2023-05-15T09:01:36.470Z,97900.05
2023-05-15T09:04:49.039Z,97912.84
2023-05-15T09:08:03.543Z,97918.17
2023-05-15T09:11:16.162Z,97922.34
2023-05-15T09:14:28.193Z,97916.36
2023-05-15T09:17:41.071Z,97912.88
2023-05-15T09:20:55.978Z,97910.38
2023-05-15T09:24:25.574Z,97897.81
2023-05-15T09:27:46.761Z,97899.72
2023-05-15T09:31:05.833Z,97908.17
2023-05-15T09:34:18.436Z,97910.23
2023-05-15T09:37:40.552Z,97905.02
2023-05-15T09:40:52.789Z,97912.76
2023-05-15T09:44:04.995Z,97917.75
2023-05-15T09:47:19.652Z,97928.06
2023-05-15T09:50:38.665Z,97935.09
2023-05-15T09:53:54.451Z,97930.30
2023-05-15T10:06:09.074Z,97917.91
2023-05-15T10:46:41.006Z,97943.57
2023-05-15T10:49:53.549Z,97944.15
2023-05-15T10:53:06.131Z,97940.03
2023-05-15T10:56:22.578Z,97935.52
2023-05-15T10:59:41.941Z,97939.23
2023-05-15T11:02:56.470Z,97935.72
2023-05-15T11:06:18.839Z,97929.30
2023-05-15T11:15:31.508Z,97921.24
2023-05-15T11:18:45.888Z,97918.53
2023-05-15T11:22:05.157Z,97923.30
2023-05-15T11:25:18.415Z,97921.24
2023-05-15T11:28:32.437Z,97924.13
2023-05-15T11:31:44.778Z,97920.00
2023-05-15T11:34:57.654Z,97922.08
2023-05-15T11:38:13.443Z,97920.20
2023-05-15T11:41:28.819Z,97921.63
2023-05-15T11:44:41.076Z,97915.06
2023-05-15T11:47:53.331Z,97911.33
2023-05-15T11:51:07.209Z,97911.34
2023-05-15T11:54:20.727Z,97917.98
2023-05-15T11:57:33.327Z,97900.88
2023-05-15T12:00:45.648Z,97907.28
2023-05-15T12:03:58.767Z,97913.88
2023-05-15T12:07:12.625Z,97914.27
2023-05-15T12:10:25.136Z,97896.93
2023-05-15T12:13:39.139Z,97892.22
2023-05-15T12:16:51.300Z,97892.41
2023-05-15T12:20:04.489Z,97896.60
2023-05-15T12:23:19.016Z,97886.48
2023-05-15T12:26:32.497Z,97878.97
2023-05-15T12:29:46.175Z,97875.33
2023-05-15T12:33:01.156Z,97877.09
2023-05-15T12:36:14.391Z,97862.17
2023-05-15T12:39:26.503Z,97875.21
2023-05-15T12:42:44.010Z,97883.17
2023-05-15T12:46:00.551Z,97872.89
2023-05-15T12:49:13.051Z,97872.66
2023-05-15T12:52:25.176Z,97851.03
2023-05-15T12:55:39.641Z,97860.66
2023-05-15T12:58:54.864Z,97851.53
2023-05-15T13:02:08.297Z,97851.25
2023-05-15T13:05:21.768Z,97852.33
2023-05-15T13:08:34.267Z,97838.36
2023-05-15T13:11:51.072Z,97844.45
2023-05-15T13:15:01.590Z,97833.77
2023-05-15T13:18:15.753Z,97826.72
2023-05-15T13:21:28.755Z,97821.06
2023-05-15T13:24:40.917Z,97832.50
2023-05-15T13:27:53.371Z,97843.52
2023-05-15T13:31:05.655Z,97844.14
2023-05-15T13:34:17.798Z,97846.70
2023-05-15T13:37:29.943Z,97844.69
2023-05-15T13:40:42.365Z,97856.61
2023-05-15T13:43:54.477Z,97864.12
2023-05-15T13:47:06.671Z,97863.70
2023-05-15T13:50:21.295Z,97862.75
2023-05-15T13:53:33.579Z,97865.47
2023-05-15T13:56:46.361Z,97854.41
2023-05-15T13:59:58.664Z,97863.47
2023-05-15T14:03:14.096Z,97868.22
2023-05-15T14:06:25.327Z,97883.50
2023-05-15T14:09:37.552Z,97895.08
2023-05-15T14:12:49.841Z,97896.53
2023-05-15T14:16:02.154Z,97896.93
2023-05-15T14:19:14.791Z,97893.41
2023-05-15T14:22:27.509Z,97914.31
2023-05-15T14:25:39.813Z,97909.73
2023-05-15T14:28:52.368Z,97897.26
2023-05-15T14:32:04.856Z,97895.11
2023-05-15T14:35:17.356Z,97898.88
2023-05-15T14:38:29.520Z,97898.06
2023-05-15T14:41:42.481Z,97882.31
2023-05-15T14:44:54.708Z,97877.79
2023-05-15T14:48:07.189Z,97882.28
2023-05-15T14:51:20.116Z,97872.06
2023-05-15T14:54:32.703Z,97875.14
2023-05-15T14:57:46.899Z,97877.38
2023-05-15T15:00:59.058Z,97868.27
2023-05-15T15:04:11.723Z,97870.52
2023-05-15T15:07:24.111Z,97873.09
2023-05-15T15:10:38.016Z,97882.55
2023-05-15T15:13:51.348Z,97878.45
2023-05-15T15:17:04.113Z,97866.69
2023-05-15T15:20:19.328Z,97872.91
2023-05-15T15:23:31.899Z,97877.23
2023-05-15T15:26:44.352Z,97884.73
2023-05-15T15:29:56.656Z,97885.73
2023-05-15T15:33:08.914Z,97886.05
2023-05-15T15:36:21.008Z,97894.50
2023-05-15T15:39:33.657Z,97897.18
2023-05-15T15:42:45.816Z,97894.52
2023-05-15T15:45:59.570Z,97904.43
2023-05-15T15:49:11.780Z,97907.97
2023-05-15T15:52:24.475Z,97904.63
2023-05-15T15:55:37.054Z,97911.23
2023-05-15T15:58:49.557Z,97910.16
2023-05-15T16:02:02.387Z,97917.00
2023-05-15T16:05:16.126Z,97922.84
2023-05-15T16:08:28.320Z,97921.22
2023-05-15T16:11:40.573Z,97916.30
2023-05-15T16:14:52.897Z,97934.09
2023-05-15T16:18:05.333Z,97932.03
2023-05-15T16:21:17.743Z,97930.78
2023-05-15T16:24:30.091Z,97926.65
2023-05-15T16:27:42.274Z,97933.66
2023-05-15T16:30:55.556Z,97924.58
2023-05-15T16:34:08.747Z,97930.35
2023-05-15T16:37:20.969Z,97934.70
2023-05-15T16:40:33.523Z,97928.33
2023-05-15T16:43:45.783Z,97937.84
2023-05-15T16:47:00.073Z,97943.42
2023-05-15T16:50:14.560Z,97943.02
2023-05-15T16:53:27.148Z,97950.02
2023-05-15T16:56:39.419Z,97944.86
2023-05-15T16:59:51.791Z,97950.23
2023-05-15T17:03:05.772Z,97961.80
2023-05-15T17:06:18.412Z,97953.73
2023-05-15T17:09:30.724Z,97956.41
2023-05-15T17:12:44.167Z,97969.20
2023-05-15T17:15:56.582Z,97966.32
2023-05-15T17:19:09.117Z,97968.78
2023-05-15T17:22:21.704Z,97976.01
2023-05-15T17:25:35.060Z,97976.20
2023-05-15T17:28:47.632Z,97983.16
2023-05-15T17:32:00.007Z,97985.63
2023-05-15T17:35:13.964Z,97992.60
2023-05-15T17:38:26.223Z,97989.27
2023-05-15T17:41:38.427Z,97996.84
2023-05-15T17:44:50.788Z,97998.66
2023-05-15T17:48:05.210Z,98001.88
2023-05-15T17:51:17.532Z,98010.91
2023-05-15T17:54:30.145Z,98010.86
2023-05-15T17:57:42.805Z,98020.25
2023-05-15T18:00:55.907Z,98024.34
2023-05-15T18:04:08.577Z,98038.31
2023-05-15T18:07:21.166Z,98036.61
2023-05-15T18:10:33.449Z,98041.73
2023-05-15T18:13:45.784Z,98037.79
2023-05-15T18:16:59.245Z,98044.12
2023-05-15T18:20:14.217Z,98047.50
2023-05-15T18:23:26.507Z,98056.48
2023-05-15T18:26:38.970Z,98054.18
2023-05-15T18:29:52.058Z,98061.00
2023-05-15T18:33:04.487Z,98065.96
2023-05-15T18:36:17.030Z,98075.03
2023-05-15T18:39:29.598Z,98075.03
2023-05-15T18:42:41.912Z,98070.31
2023-05-15T18:45:54.483Z,98082.42
2023-05-15T18:49:07.186Z,98086.49
2023-05-15T18:52:21.680Z,98077.28
2023-05-15T18:55:34.630Z,98081.34
2023-05-15T18:58:47.644Z,98079.70
2023-05-15T19:01:59.924Z,98091.69
2023-05-15T19:05:14.235Z,98095.81
2023-05-15T19:08:26.685Z,98097.68
2023-05-15T19:11:38.858Z,98100.91
2023-05-15T19:14:51.345Z,98115.88
2023-05-15T19:18:03.781Z,98116.64
2023-05-15T19:21:16.676Z,98123.09
2023-05-15T19:24:31.408Z,98120.81
2023-05-15T19:27:44.055Z,98126.06
2023-05-15T19:30:56.362Z,98131.80
2023-05-15T19:34:08.939Z,98120.82
2023-05-15T19:37:21.897Z,98126.27
2023-05-15T19:40:34.372Z,98128.94
2023-05-15T19:43:47.330Z,98139.08
2023-05-15T19:46:59.957Z,98135.12
2023-05-15T19:50:15.640Z,98144.36
2023-05-15T19:53:27.891Z,98148.22
2023-05-15T19:56:39.966Z,98150.44
2023-05-15T19:59:52.421Z,98149.60
2023-05-15T20:03:04.950Z,98146.83
2023-05-15T20:06:19.345Z,98155.56
2023-05-15T20:09:31.947Z,98156.67
2023-05-15T20:12:44.562Z,98150.03
2023-05-15T20:16:04.126Z,98158.13
2023-05-15T20:19:17.333Z,98160.46
2023-05-15T20:22:30.400Z,98162.86
2023-05-15T20:25:42.739Z,98158.05
2023-05-15T20:31:55.498Z,98167.69
2023-05-15T20:35:09.288Z,98173.74
2023-05-15T20:38:22.227Z,98170.14
2023-05-15T20:41:34.646Z,98172.87
2023-05-15T20:44:46.963Z,98178.73
2023-05-15T20:47:59.118Z,98174.56
2023-05-15T20:51:15.011Z,98176.77
2023-05-15T21:06:57.291Z,98202.66
2023-05-15T21:10:10.487Z,98197.73
2023-05-15T21:13:22.680Z,98196.13
2023-05-15T21:16:35.631Z,98199.13
2023-05-15T21:19:49.125Z,98204.66
2023-05-15T21:23:01.434Z,98204.17
2023-05-15T21:26:14.361Z,98208.19
2023-05-15T21:52:57.458Z,98203.61
2023-05-15T21:56:11.838Z,98225.63
2023-05-15T21:59:24.593Z,98222.98
2023-05-15T22:02:36.664Z,98216.98
2023-05-15T22:05:50.259Z,98213.48
2023-05-15T22:09:02.500Z,98218.33
2023-05-15T22:12:15.634Z,98217.00
2023-05-15T22:15:27.875Z,98217.00
2023-05-15T22:18:40.098Z,98213.67
2023-05-15T22:21:52.294Z,98211.03
2023-05-15T22:25:04.456Z,98220.36
2023-05-15T22:28:16.711Z,98220.05
2023-05-15T22:31:29.034Z,98226.05
2023-05-15T22:34:41.214Z,98220.38
2023-05-15T22:37:53.297Z,98218.38
2023-05-15T22:41:05.785Z,98227.38
2023-05-15T22:44:18.344Z,98221.88
2023-05-15T22:47:31.263Z,98232.36
2023-05-15T22:50:43.892Z,98229.38
2023-05-15T22:53:55.866Z,98231.69
2023-05-15T22:57:09.161Z,98235.02
2023-05-15T23:00:23.932Z,98241.18
2023-05-15T23:03:36.366Z,98243.67
2023-05-15T23:06:48.662Z,98236.20
2023-05-15T23:10:01.372Z,98239.36
2023-05-15T23:13:13.546Z,98244.69
2023-05-15T23:16:26.349Z,98236.36
2023-05-15T23:19:39.019Z,98234.36
2023-05-15T23:22:51.435Z,98242.70
2023-05-15T23:26:04.148Z,98242.03
2023-05-15T23:29:16.874Z,98245.67
2023-05-15T23:32:29.320Z,98242.03
2023-05-15T23:35:41.677Z,98242.03
2023-05-15T23:38:53.876Z,98241.37
2023-05-15T23:42:06.662Z,98247.02
2023-05-15T23:45:20.405Z,98246.34
2023-05-15T23:48:33.923Z,98255.66
2023-05-15T23:51:46.525Z,98251.67
2023-05-15T23:54:58.549Z,98261.83
2023-05-15T23:58:11.189Z,98263.33
